Time;durP1;ratioP1;P1;durP2;ratioP2;P2;SDS_P1;SDS_P2;PMS_P1;PMS_P2;Temp;Humidity;BMP_temperature;BMP_pressure;BME280_temperature;BME280_humidity;BME280_pressure;Samples;Min_cycle;Max_cycle;Signal;HPM_P1;HPM_P2
2024/01/28 00:01:38;;;;;;;34.20;10.70;;;;;;;2.38;95.13;100260.54;435396;1256;95660;-40
2024/01/28 00:31:49;;;;;;;30.90;11.30;;;;;;;2.50;95.65;100275.56;435279;1255;96536;-38
2024/01/28 00:41:53;;;;;;;35.00;10.40;;;;;;;2.45;95.57;100277.18;435194;1255;106956;-41
2024/01/28 00:52:02;;;;;;;26.10;10.80;;;;;;;2.53;95.57;100288.28;435172;1264;95305;-40
2024/01/28 01:02:05;;;;;;;33.10;11.30;;;;;;;2.62;95.77;100295.30;435263;1252;109369;-40
2024/01/28 01:12:09;;;;;;;24.40;10.70;;;;;;;2.74;95.88;100294.60;435223;1256;107395;-39
2024/01/28 01:22:12;;;;;;;30.40;13.90;;;;;;;2.73;95.95;100284.08;435178;1256;96582;-39
2024/01/28 01:32:18;;;;;;;39.90;15.30;;;;;;;2.66;96.06;100280.32;435219;1255;97899;-40
2024/01/28 01:42:22;;;;;;;55.20;18.50;;;;;;;2.59;96.23;100287.05;435118;1253;108865;-39
2024/01/28 01:52:25;;;;;;;43.00;16.90;;;;;;;2.58;96.00;100298.29;435914;1252;96650;-39
2024/01/28 02:02:30;;;;;;;28.90;13.20;;;;;;;2.64;96.01;100297.76;435931;1248;108561;-40
2024/01/28 02:12:33;;;;;;;26.30;11.20;;;;;;;2.69;96.25;100305.66;435939;1252;97880;-39
2024/01/28 02:22:36;;;;;;;18.20;6.90;;;;;;;2.71;96.29;100315.89;435934;1253;110031;-40
2024/01/28 02:32:46;;;;;;;13.90;6.90;;;;;;;2.72;96.53;100320.70;435920;1247;108444;-39
2024/01/28 02:52:54;;;;;;;30.50;8.80;;;;;;;2.71;97.09;100336.50;435935;1252;107995;-40
2024/01/28 03:03:01;;;;;;;21.20;8.10;;;;;;;2.62;97.28;100336.73;435957;1249;96567;-40
2024/01/28 03:13:05;;;;;;;19.80;7.20;;;;;;;2.62;97.24;100344.27;435930;1248;97116;-40
2024/01/28 03:23:10;;;;;;;14.80;6.90;;;;;;;2.61;97.32;100346.10;435756;1252;106670;-39
2024/01/28 03:33:13;;;;;;;20.60;6.80;;;;;;;2.61;97.39;100351.88;435793;1252;97955;-40
2024/01/28 03:43:17;;;;;;;15.00;6.40;;;;;;;2.56;97.28;100356.66;435885;1252;110809;-38
2024/01/28 03:53:20;;;;;;;27.60;8.20;;;;;;;2.35;97.26;100366.09;435892;1252;108401;-40
2024/01/28 04:03:24;;;;;;;21.40;11.50;;;;;;;2.15;97.11;100369.10;435779;1248;97458;-38
2024/01/28 04:13:27;;;;;;;23.60;9.20;;;;;;;2.04;97.44;100373.05;436037;1252;97123;-39
2024/01/28 04:23:30;;;;;;;17.80;9.10;;;;;;;2.07;97.30;100373.79;435573;1254;108195;-38
2024/01/28 04:33:34;;;;;;;17.50;6.70;;;;;;;2.18;97.33;100379.61;435687;1252;97979;-41
2024/01/28 04:53:42;;;;;;;15.50;5.10;;;;;;;2.44;98.14;100386.60;435797;1252;98496;-39
2024/01/28 05:03:45;;;;;;;18.70;6.90;;;;;;;2.53;98.13;100391.58;435954;1249;111751;-39
2024/01/28 05:23:53;;;;;;;19.40;7.10;;;;;;;2.63;98.28;100409.12;435760;1248;97979;-39
2024/01/28 05:33:56;;;;;;;34.00;12.40;;;;;;;2.63;98.22;100424.65;435779;1252;108017;-39
2024/01/28 05:44:00;;;;;;;27.40;10.40;;;;;;;2.58;98.26;100439.83;435742;1252;97877;-40
2024/01/28 05:54:07;;;;;;;12.20;6.50;;;;;;;2.57;98.08;100443.42;435957;1249;97456;-38
2024/01/28 06:04:11;;;;;;;18.70;9.50;;;;;;;2.62;97.94;100448.76;435617;1254;108261;-41
2024/01/28 06:14:14;;;;;;;16.10;6.00;;;;;;;2.67;98.04;100455.77;435661;1252;97866;-39
2024/01/28 06:24:17;;;;;;;22.80;8.90;;;;;;;2.70;98.03;100456.63;435677;1248;110357;-38
2024/01/28 06:34:25;;;;;;;28.50;13.20;;;;;;;2.69;98.25;100471.28;435595;1252;107608;-39
2024/01/28 06:44:29;;;;;;;34.00;15.00;;;;;;;2.65;98.28;100485.99;435614;1251;97766;-38
2024/01/28 06:54:32;;;;;;;33.60;13.60;;;;;;;2.61;98.18;100489.13;435826;1252;97871;-39
2024/01/28 07:04:35;;;;;;;27.00;11.90;;;;;;;2.60;97.84;100495.18;435692;1252;107939;-39
2024/01/28 07:14:40;;;;;;;21.50;10.80;;;;;;;2.70;97.96;100499.88;435604;1247;98035;-39
2024/01/28 07:24:44;;;;;;;20.00;9.90;;;;;;;2.82;98.03;100509.30;435771;1253;108549;-39
2024/01/28 07:44:51;;;;;;;22.10;12.50;;;;;;;2.80;98.13;100512.27;435746;1252;111567;-39
2024/01/28 07:54:54;;;;;;;22.10;12.30;;;;;;;2.93;98.01;100523.34;435784;1252;96623;-38
2024/01/28 08:15:00;;;;;;;25.30;12.30;;;;;;;3.32;98.04;100525.58;435734;1261;109888;-39
2024/01/28 08:35:07;;;;;;;30.80;12.00;;;;;;;3.51;98.14;100542.02;436590;1253;553834;-39
2024/01/28 08:45:11;;;;;;;21.40;8.70;;;;;;;3.54;97.98;100560.43;436587;1252;97462;-39
2024/01/28 08:55:14;;;;;;;15.00;7.90;;;;;;;3.62;98.03;100571.83;436385;1252;107725;-39
2024/01/28 09:05:21;;;;;;;17.60;8.20;;;;;;;3.83;98.21;100565.30;436349;1252;97465;-39
2024/01/28 09:15:24;;;;;;;25.80;11.10;;;;;;;4.03;98.31;100563.05;436329;1250;107269;-39
2024/01/28 09:25:28;;;;;;;23.10;8.70;;;;;;;4.20;98.44;100558.85;436297;1248;97350;-40
2024/01/28 09:35:32;;;;;;;19.10;10.80;;;;;;;4.20;98.03;100565.19;436371;1251;110232;-39
2024/01/28 09:45:36;;;;;;;20.20;10.40;;;;;;;4.13;97.60;100577.86;436364;1253;96634;-39
2024/01/28 09:55:39;;;;;;;38.90;14.10;;;;;;;4.13;97.48;100581.89;436413;1251;97893;-38
2024/01/28 10:05:43;;;;;;;22.20;9.00;;;;;;;4.14;97.58;100579.18;436372;1248;110800;-39
2024/01/28 10:36:05;;;;;;;18.50;8.40;;;;;;;3.92;97.20;100574.74;436417;1252;96657;-40
2024/01/28 10:46:27;;;;;;;19.60;11.00;;;;;;;4.00;97.08;100585.17;436466;1253;107199;-40
2024/01/28 10:56:33;;;;;;;27.60;15.00;;;;;;;4.12;97.10;100582.88;436473;1250;97906;-39
2024/01/28 11:06:36;;;;;;;27.90;13.10;;;;;;;4.15;97.29;100579.23;436513;1250;108360;-38
2024/01/28 11:16:40;;;;;;;24.00;11.80;;;;;;;4.15;97.22;100572.84;436356;1248;97957;-40
2024/01/28 11:26:46;;;;;;;27.90;11.40;;;;;;;4.16;96.94;100570.58;436460;1252;97495;-39
2024/01/28 11:36:51;;;;;;;32.10;16.90;;;;;;;4.26;96.84;100569.35;436345;1253;107503;-39
2024/01/28 11:46:55;;;;;;;29.70;15.50;;;;;;;4.31;96.85;100579.70;436319;1253;98015;-39
2024/01/28 12:07:06;;;;;;;36.50;16.00;;;;;;;4.32;96.87;100585.21;436411;1252;97753;-38
2024/01/28 12:17:14;;;;;;;32.70;15.80;;;;;;;4.44;96.67;100583.05;436399;1248;96985;-41
2024/01/28 12:27:17;;;;;;;33.10;16.60;;;;;;;4.62;96.50;100574.06;436300;1252;111643;-39
2024/01/28 12:37:24;;;;;;;86.50;40.10;;;;;;;4.85;96.96;100567.81;436373;1253;107756;-39
2024/01/28 13:07:37;;;;;;;31.60;15.50;;;;;;;4.69;95.51;100556.02;436333;1253;108503;-38
2024/01/28 13:17:41;;;;;;;38.60;18.20;;;;;;;4.63;95.30;100562.62;436279;1254;96569;-39
2024/01/28 13:27:45;;;;;;;27.50;12.40;;;;;;;4.59;95.10;100560.84;436352;1252;97883;-39
2024/01/28 13:37:49;;;;;;;36.50;19.10;;;;;;;4.68;95.03;100565.45;436272;1252;109378;-39
2024/01/28 13:47:52;;;;;;;30.10;15.90;;;;;;;4.74;95.13;100571.67;436337;1253;118326;-38
2024/01/28 14:07:59;;;;;;;55.20;27.20;;;;;;;4.59;95.14;100575.92;436330;1253;98105;-40
2024/01/28 14:18:07;;;;;;;50.80;29.70;;;;;;;4.53;94.91;100570.30;436422;1260;96636;-39
2024/01/28 14:28:11;;;;;;;42.30;19.40;;;;;;;4.45;94.63;100570.94;436434;1248;107462;-39
2024/01/28 14:38:14;;;;;;;42.20;22.10;;;;;;;4.40;94.65;100572.23;436427;1253;96678;-39
2024/01/28 15:18:32;;;;;;;61.80;28.80;;;;;;;4.07;94.86;100601.62;436416;1261;96670;-39
2024/01/28 15:28:36;;;;;;;59.60;29.30;;;;;;;3.98;94.66;100602.61;436314;1253;107423;-38
2024/01/28 15:38:44;;;;;;;51.00;22.60;;;;;;;3.98;94.67;100605.09;436302;1248;97863;-39
2024/01/28 15:48:53;;;;;;;56.10;25.70;;;;;;;3.98;94.66;100610.60;436494;1247;107886;-39
2024/01/28 16:09:00;;;;;;;73.70;39.20;;;;;;;3.97;95.04;100600.96;436324;1254;109454;-38
2024/01/28 16:19:07;;;;;;;76.40;41.80;;;;;;;3.87;94.69;100607.34;436403;1252;107172;-38
2024/01/28 16:29:17;;;;;;;77.70;42.30;;;;;;;3.74;94.53;100599.27;436319;1248;96654;-38
2024/01/28 16:39:21;;;;;;;81.90;45.30;;;;;;;3.72;94.52;100597.49;436269;1247;107785;-39
2024/01/28 16:49:25;;;;;;;134.40;66.80;;;;;;;3.75;94.75;100594.41;436256;1263;98355;-39
2024/01/28 17:29:40;;;;;;;84.20;42.30;;;;;;;3.54;94.44;100615.52;436268;1252;97878;-39
2024/01/28 17:39:43;;;;;;;49.80;26.10;;;;;;;3.52;94.47;100611.99;436191;1254;107408;-40
2024/01/28 17:49:46;;;;;;;87.40;46.10;;;;;;;3.50;94.58;100612.89;436219;1247;97867;-40
2024/01/28 17:59:54;;;;;;;81.50;39.20;;;;;;;3.47;94.62;100624.68;436371;1248;108604;-39
2024/01/28 18:09:58;;;;;;;86.60;46.20;;;;;;;3.38;94.47;100625.67;436299;1254;97078;-40
2024/01/28 18:20:05;;;;;;;72.70;37.30;;;;;;;3.37;94.31;100625.88;436247;1254;97877;-40
2024/01/28 18:30:13;;;;;;;73.40;37.40;;;;;;;3.39;94.11;100622.41;436245;1252;108256;-39
2024/01/28 18:40:20;;;;;;;79.80;41.80;;;;;;;3.35;94.07;100603.04;436213;1254;97902;-40
2024/01/28 18:50:24;;;;;;;101.10;50.60;;;;;;;3.27;94.26;100588.80;436312;1253;109382;-40
2024/01/28 19:00:29;;;;;;;99.90;51.10;;;;;;;3.08;94.06;100589.92;436233;1252;96663;-40
2024/01/28 19:20:52;;;;;;;89.60;53.10;;;;;;;2.52;93.43;100596.89;436411;1248;98031;-40
2024/01/28 19:30:55;;;;;;;88.40;47.70;;;;;;;2.25;93.17;100598.59;436309;1253;108701;-39
2024/01/28 19:51:03;;;;;;;161.20;78.40;;;;;;;1.42;92.99;100588.42;436292;1253;96639;-40
2024/01/28 20:01:11;;;;;;;162.10;82.70;;;;;;;1.08;93.41;100581.05;436379;1247;109461;-38
2024/01/28 20:11:18;;;;;;;114.80;70.30;;;;;;;0.93;93.33;100580.50;436246;1247;96658;-40
2024/01/28 20:31:26;;;;;;;107.50;57.70;;;;;;;1.06;94.03;100578.24;435883;1248;483893;-39
2024/01/28 20:41:34;;;;;;;165.00;79.20;;;;;;;0.93;93.61;100585.67;436565;1249;97351;-39
2024/01/28 20:51:40;;;;;;;223.10;100.00;;;;;;;0.74;93.59;100589.11;436094;1252;110609;-40
2024/01/28 21:01:44;;;;;;;236.90;103.30;;;;;;;0.37;93.07;100582.39;436385;1252;108546;-40
2024/01/28 21:11:47;;;;;;;152.60;76.90;;;;;;;0.04;93.14;100578.34;436339;1251;98410;-40
2024/01/28 21:31:56;;;;;;;116.90;65.90;;;;;;;0.13;93.66;100576.61;436243;1252;108291;-39
2024/01/28 21:42:02;;;;;;;156.60;72.40;;;;;;;0.22;93.72;100578.18;436327;1247;97870;-40
2024/01/28 21:52:06;;;;;;;169.10;84.00;;;;;;;0.10;93.41;100583.77;436274;1252;111553;-39
2024/01/28 22:12:13;;;;;;;218.50;92.40;;;;;;;-0.57;93.11;100595.11;436408;1252;96690;-39
2024/01/28 22:22:19;;;;;;;146.60;79.40;;;;;;;-0.58;93.32;100596.60;436214;1253;97877;-41
2024/01/28 22:32:23;;;;;;;146.70;75.90;;;;;;;-0.66;93.11;100606.48;436311;1252;109618;-39
2024/01/28 22:42:27;;;;;;;116.40;65.80;;;;;;;-0.70;92.98;100618.58;436366;1248;97867;-40
2024/01/28 22:52:32;;;;;;;191.80;86.20;;;;;;;-0.69;93.59;100614.84;436436;1251;110676;-39
2024/01/28 23:02:39;;;;;;;166.80;80.30;;;;;;;-0.79;93.48;100620.23;436467;1248;98045;-39
2024/01/28 23:12:42;;;;;;;166.20;78.60;;;;;;;-0.93;93.41;100625.73;436583;1248;97227;-40
2024/01/28 23:22:46;;;;;;;177.80;76.50;;;;;;;-0.96;94.03;100600.44;436413;1252;97468;-40
2024/01/28 23:32:50;;;;;;;135.90;67.50;;;;;;;-0.82;93.83;100583.53;436387;1248;108456;-40
2024/01/28 23:42:53;;;;;;;123.90;65.20;;;;;;;-0.77;93.57;100574.23;436247;1253;97886;-39
